Time;durP1;ratioP1;P1;durP2;ratioP2;P2;SDS_P1;SDS_P2;PMS_P1;PMS_P2;Temp;Humidity;BMP_temperature;BMP_pressure;BME280_temperature;BME280_humidity;BME280_pressure;Samples;Min_cycle;Max_cycle;Signal;HPM_P1;HPM_P2
2021/01/12 00:00:16;;;;;;;47.80;31.20;;;;;;;-5.72;84.14;96093.97;1032129;28;20730;-82
2021/01/12 00:00:47;;;;;;;45.67;30.30;;;;;;;-5.65;84.18;96095.00;1033125;28;20379;-82
2021/01/12 00:01:17;;;;;;;48.22;31.15;;;;;;;-5.58;85.44;96098.59;1033971;28;20026;-82
2021/01/12 00:01:47;;;;;;;47.95;30.83;;;;;;;-5.62;84.74;96094.69;1040106;28;20017;-82
2021/01/12 00:02:19;;;;;;;47.58;30.48;;;;;;;-5.65;84.57;96107.91;1044290;28;20024;-82
2021/01/12 00:02:54;;;;;;;45.47;30.52;;;;;;;-5.72;85.18;96109.47;1044541;28;20031;-82
2021/01/12 00:03:25;;;;;;;47.47;29.35;;;;;;;-5.74;84.98;96111.38;1036182;28;20014;-82
2021/01/12 00:03:55;;;;;;;50.05;31.90;;;;;;;-5.67;85.90;96122.75;1036223;28;20026;-82
2021/01/12 00:04:27;;;;;;;44.00;29.35;;;;;;;-5.61;85.42;96122.16;1036292;28;20105;-82
2021/01/12 00:04:57;;;;;;;47.95;31.58;;;;;;;-5.53;85.85;96117.06;1041093;28;20402;-82
2021/01/12 00:05:28;;;;;;;45.08;30.42;;;;;;;-5.57;85.43;96123.47;1048177;28;20025;-82
2021/01/12 00:05:59;;;;;;;46.80;31.15;;;;;;;-5.56;85.08;96119.94;1048315;28;20012;-82
2021/01/12 00:06:29;;;;;;;44.10;28.33;;;;;;;-5.48;84.28;96121.75;1046004;28;20012;-82
2021/01/12 00:07:00;;;;;;;45.30;29.67;;;;;;;-5.48;84.76;96124.34;1044822;28;20049;-82
2021/01/12 00:07:30;;;;;;;46.25;31.23;;;;;;;-5.51;84.46;96122.88;1047873;28;20063;-82
2021/01/12 00:08:00;;;;;;;45.50;30.50;;;;;;;-5.45;84.12;96122.28;1048558;28;20400;-82
2021/01/12 00:08:31;;;;;;;45.78;29.33;;;;;;;-5.39;85.14;96120.88;1046198;28;20016;-82
2021/01/12 00:09:02;;;;;;;45.63;30.08;;;;;;;-5.45;84.24;96124.84;1036383;28;20034;-82
2021/01/12 00:09:32;;;;;;;51.08;31.83;;;;;;;-5.58;83.96;96129.59;1037490;28;20451;-82
2021/01/12 00:10:06;;;;;;;46.95;30.35;;;;;;;-5.56;84.38;96127.69;1035888;28;20463;-82
2021/01/12 00:10:36;;;;;;;46.17;30.52;;;;;;;-5.61;83.94;96124.72;1037089;28;20014;-82
2021/01/12 00:11:07;;;;;;;47.33;31.67;;;;;;;-5.57;84.17;96118.28;1041899;28;20013;-82
2021/01/12 00:11:37;;;;;;;44.67;30.83;;;;;;;-5.61;84.05;96124.72;1044030;28;20024;-82
2021/01/12 00:12:08;;;;;;;45.67;31.05;;;;;;;-5.71;84.30;96122.22;1044145;28;20016;-82
2021/01/12 00:12:39;;;;;;;50.30;31.13;;;;;;;-5.70;84.47;96123.84;1042540;28;20469;-82
2021/01/12 00:13:10;;;;;;;45.72;29.98;;;;;;;-5.70;84.30;96121.25;1046730;28;20046;-82
2021/01/12 00:13:40;;;;;;;45.33;30.70;;;;;;;-5.64;84.63;96117.28;1045621;28;20028;-82
2021/01/12 00:15:00;;;;;;;51.30;30.55;;;;;;;-5.63;84.10;96114.56;1042411;28;20100;-82
2021/01/12 00:15:31;;;;;;;46.50;30.52;;;;;;;-5.65;84.28;96120.84;1044601;28;20462;-82
2021/01/12 00:16:01;;;;;;;45.60;31.08;;;;;;;-5.77;84.43;96106.53;1044389;28;20310;-82
2021/01/12 00:16:32;;;;;;;49.42;30.63;;;;;;;-5.74;84.71;96116.53;1044238;28;20024;-82
2021/01/12 00:17:06;;;;;;;43.10;29.80;;;;;;;-5.67;84.71;96110.66;1041050;28;20813;-82
2021/01/12 00:17:36;;;;;;;44.72;29.83;;;;;;;-5.65;84.48;96116.47;1037815;28;20320;-82
2021/01/12 00:18:07;;;;;;;44.10;29.67;;;;;;;-5.66;84.62;96116.63;1039970;28;20014;-82
2021/01/12 00:18:37;;;;;;;46.47;30.27;;;;;;;-5.56;85.15;96119.94;1040611;28;20020;-82
2021/01/12 00:19:08;;;;;;;47.55;30.63;;;;;;;-5.67;84.48;96120.97;1045503;28;20009;-82
2021/01/12 00:19:40;;;;;;;46.70;30.90;;;;;;;-5.61;85.87;96116.97;1040003;28;20479;-82
2021/01/12 00:20:11;;;;;;;45.22;29.05;;;;;;;-5.65;85.47;96111.31;1039912;28;20507;-82
2021/01/12 00:20:42;;;;;;;41.25;29.15;;;;;;;-5.61;85.28;96117.78;1035905;28;20018;-82
2021/01/12 00:21:13;;;;;;;44.97;31.13;;;;;;;-5.57;85.98;96113.13;1037609;28;20045;-82
2021/01/12 00:21:43;;;;;;;49.42;30.75;;;;;;;-5.56;85.48;96113.94;1039837;28;20471;-82
2021/01/12 00:22:14;;;;;;;46.17;30.02;;;;;;;-5.50;84.86;96111.59;1040081;28;20020;-82
2021/01/12 00:22:44;;;;;;;46.78;30.63;;;;;;;-5.43;85.61;96114.41;1044427;28;20024;-82
2021/01/12 00:23:15;;;;;;;44.08;29.52;;;;;;;-5.44;85.03;96111.00;1045693;28;20043;-82
2021/01/12 00:23:45;;;;;;;46.83;29.33;;;;;;;-5.40;84.34;96108.94;1039858;28;20399;-82
2021/01/12 00:24:16;;;;;;;44.40;30.25;;;;;;;-5.55;nan;96106.06;1039881;28;20018;-82
2021/01/12 00:24:47;;;;;;;51.25;32.67;;;;;;;-5.59;84.81;96107.31;1039942;28;20431;-82
2021/01/12 00:25:18;;;;;;;47.50;31.50;;;;;;;-5.52;84.87;96105.78;1037526;28;20010;-82
2021/01/12 00:25:48;;;;;;;49.67;33.10;;;;;;;-5.57;85.00;96110.56;1039880;28;20013;-82
2021/01/12 00:26:19;;;;;;;44.53;30.35;;;;;;;-5.68;85.34;96111.63;1035816;28;20022;-82
2021/01/12 00:26:50;;;;;;;47.85;30.90;;;;;;;-5.61;85.43;96111.81;1034606;28;20049;-82
2021/01/12 00:27:22;;;;;;;45.53;30.02;;;;;;;-5.42;86.31;96119.41;1035963;28;20093;-83
2021/01/12 00:27:53;;;;;;;46.67;31.73;;;;;;;-5.48;85.77;96109.66;1036398;28;20403;-82
2021/01/12 00:28:23;;;;;;;51.58;33.38;;;;;;;-5.49;85.49;96107.22;1035877;28;20052;-82
2021/01/12 00:28:54;;;;;;;45.67;31.38;;;;;;;-5.47;85.28;96110.47;1040125;28;20033;-82
2021/01/12 00:29:25;;;;;;;46.45;31.40;;;;;;;-5.64;84.98;96109.53;1039983;28;20025;-83
2021/01/12 00:29:55;;;;;;;45.92;30.38;;;;;;;-5.58;85.50;96108.94;1040230;28;20272;-82
2021/01/12 00:30:26;;;;;;;45.67;31.98;;;;;;;-5.54;85.67;96099.13;1039759;28;20083;-82
2021/01/12 00:30:56;;;;;;;47.38;30.42;;;;;;;-5.59;85.48;96096.97;1035994;28;20084;-80
2021/01/12 00:31:28;;;;;;;43.75;29.75;;;;;;;-5.56;85.88;96098.44;1035823;28;20026;-81
2021/01/12 00:31:58;;;;;;;47.72;31.20;;;;;;;-5.42;86.28;96093.59;1032049;28;20029;-80
2021/01/12 00:32:29;;;;;;;44.30;30.70;;;;;;;-5.44;85.92;96089.53;1035598;28;20287;-81
2021/01/12 00:32:59;;;;;;;45.53;30.10;;;;;;;-5.40;85.13;96091.66;1040057;28;20060;-81
2021/01/12 00:33:33;;;;;;;45.22;30.85;;;;;;;-5.38;84.76;96101.84;1040052;28;20474;-80
2021/01/12 00:34:03;;;;;;;46.72;30.75;;;;;;;-5.38;85.71;96100.06;1044522;28;20446;-81
2021/01/12 00:34:35;;;;;;;45.67;30.20;;;;;;;-5.44;85.40;96095.50;1044223;28;20299;-81
2021/01/12 00:35:06;;;;;;;50.95;31.17;;;;;;;-5.44;85.89;96098.09;1044375;28;20390;-81
2021/01/12 00:35:36;;;;;;;46.55;31.88;;;;;;;-5.45;85.76;96093.84;1044409;28;20671;-81
2021/01/12 00:36:08;;;;;;;47.83;31.98;;;;;;;-5.50;85.17;96096.09;1044338;28;20032;-82
2021/01/12 00:36:45;;;;;;;48.25;33.10;;;;;;;-5.46;85.83;96094.81;1044183;28;20369;-81
2021/01/12 00:37:17;;;;;;;45.85;31.58;;;;;;;-5.33;86.41;96095.28;1041203;28;20272;-81
2021/01/12 00:37:47;;;;;;;45.53;29.80;;;;;;;-5.41;85.73;96097.78;1045798;28;20078;-81
2021/01/12 00:38:17;;;;;;;46.33;30.77;;;;;;;-5.28;86.74;96099.16;1042179;28;20022;-81
2021/01/12 00:38:48;;;;;;;46.30;30.00;;;;;;;-5.23;85.76;96094.34;1041689;28;20037;-82
2021/01/12 00:39:19;;;;;;;49.90;31.08;;;;;;;-5.24;84.76;96100.47;1038128;28;20383;-82
2021/01/12 00:39:52;;;;;;;44.50;30.17;;;;;;;-5.30;84.10;96105.28;1037948;28;20467;-81
2021/01/12 00:40:23;;;;;;;48.00;31.50;;;;;;;-5.27;85.43;96103.38;1042044;28;20076;-82
2021/01/12 00:40:53;;;;;;;47.78;30.60;;;;;;;-5.35;85.16;96096.34;1042637;28;20032;-82
2021/01/12 00:41:24;;;;;;;48.25;31.70;;;;;;;-5.20;85.85;96096.66;1040463;28;20013;-81
2021/01/12 00:41:55;;;;;;;44.47;29.67;;;;;;;-5.32;84.94;96103.84;1039877;28;20022;-81
2021/01/12 00:42:25;;;;;;;46.85;29.73;;;;;;;-5.21;86.38;96105.34;1035968;28;20017;-81
2021/01/12 00:42:55;;;;;;;45.47;31.27;;;;;;;-5.16;86.05;96096.19;1036057;28;20265;-81
2021/01/12 00:43:26;;;;;;;50.30;31.08;;;;;;;-5.13;85.75;96113.16;1040018;28;20075;-82
2021/01/12 00:43:56;;;;;;;46.38;28.73;;;;;;;-5.11;84.82;96099.09;1039984;28;20060;-81
2021/01/12 00:44:27;;;;;;;42.50;28.77;;;;;;;-5.08;85.19;96104.00;1044485;28;20025;-81
2021/01/12 00:44:57;;;;;;;42.13;29.10;;;;;;;-5.11;84.53;96104.28;1044385;28;20044;-81
2021/01/12 00:45:28;;;;;;;46.33;30.98;;;;;;;-5.18;84.36;96098.09;1044321;28;20032;-81
2021/01/12 00:45:58;;;;;;;47.60;31.45;;;;;;;-5.12;85.45;96099.25;1043980;28;20106;-81
2021/01/12 00:46:29;;;;;;;47.10;31.75;;;;;;;-5.18;84.77;96098.09;1044397;28;20020;-81
2021/01/12 00:46:59;;;;;;;45.03;31.05;;;;;;;-5.08;85.51;96098.00;1043227;28;20041;-81
2021/01/12 00:47:32;;;;;;;44.42;29.25;;;;;;;-5.18;84.43;96097.31;1039815;28;20025;-81
2021/01/12 00:48:02;;;;;;;46.55;29.83;;;;;;;-5.23;84.32;96099.50;1039916;28;20467;-81
2021/01/12 00:48:32;;;;;;;46.65;30.70;;;;;;;-5.19;85.33;96098.25;1039979;28;20116;-80
2021/01/12 00:49:04;;;;;;;42.78;29.20;;;;;;;-5.27;84.99;96088.69;1040351;28;20041;-81
2021/01/12 00:49:34;;;;;;;45.40;29.98;;;;;;;-5.23;84.68;96097.72;1044369;28;20044;-81
2021/01/12 00:50:05;;;;;;;46.75;31.35;;;;;;;-5.32;85.11;96094.31;1044373;28;20036;-81
2021/01/12 00:50:36;;;;;;;48.40;30.30;;;;;;;-5.37;85.18;96101.69;1039597;28;20024;-81
2021/01/12 00:51:06;;;;;;;46.72;31.00;;;;;;;-5.21;86.06;96092.41;1041622;28;20478;-81
2021/01/12 00:51:38;;;;;;;45.50;30.48;;;;;;;-5.16;86.11;96098.75;1039890;28;20022;-81
2021/01/12 00:52:09;;;;;;;46.45;31.08;;;;;;;-5.19;85.63;96095.69;1040237;28;20514;-81
2021/01/12 00:52:39;;;;;;;46.88;30.63;;;;;;;-5.23;85.10;96095.16;1044152;28;20150;-82
2021/01/12 00:53:10;;;;;;;44.17;30.60;;;;;;;-5.30;85.18;96094.97;1043791;28;20032;-82
2021/01/12 00:53:40;;;;;;;48.55;31.75;;;;;;;-5.27;85.41;96098.19;1044367;28;20063;-82
2021/01/12 00:54:13;;;;;;;43.08;30.10;;;;;;;-5.23;85.76;96094.34;1044369;28;20472;-82
2021/01/12 00:54:43;;;;;;;48.13;31.40;;;;;;;-5.31;85.37;96093.34;1044470;28;20021;-82
2021/01/12 00:55:15;;;;;;;43.85;30.73;;;;;;;-5.20;86.39;96091.47;1041184;28;20471;-82
2021/01/12 00:55:46;;;;;;;47.65;30.85;;;;;;;-5.22;85.24;96085.63;1044936;28;20107;-82
2021/01/12 00:56:16;;;;;;;44.83;30.65;;;;;;;-5.04;86.51;96091.56;1043510;28;20052;-82
2021/01/12 00:56:47;;;;;;;43.80;29.17;;;;;;;-5.05;85.13;96092.53;1039629;28;20418;-82
2021/01/12 00:57:18;;;;;;;46.85;29.83;;;;;;;-5.06;84.98;96089.16;1044198;28;20025;-82
2021/01/12 00:57:48;;;;;;;44.55;30.25;;;;;;;-5.11;85.42;96087.97;1044093;28;20034;-82
2021/01/12 00:58:18;;;;;;;45.10;30.23;;;;;;;-5.17;85.29;96088.59;1040137;28;20029;-82
2021/01/12 00:58:49;;;;;;;41.40;30.33;;;;;;;-5.13;85.04;96087.31;1044155;28;20470;-81
2021/01/12 00:59:19;;;;;;;44.72;31.30;;;;;;;-5.07;85.52;96084.94;1041999;28;20032;-82
2021/01/12 00:59:50;;;;;;;43.65;30.40;;;;;;;-5.11;84.78;96087.97;1039986;28;20064;-82
2021/01/12 01:00:20;;;;;;;45.30;30.23;;;;;;;-5.11;85.09;96083.59;1044341;28;20047;-82
2021/01/12 01:00:51;;;;;;;46.20;30.65;;;;;;;-5.14;84.68;96083.91;1039953;28;20029;-82
2021/01/12 01:01:21;;;;;;;46.28;31.00;;;;;;;-5.18;85.36;96084.38;1042307;28;20029;-82
2021/01/12 01:01:51;;;;;;;44.15;30.83;;;;;;;-5.23;85.12;96084.81;1043943;28;20087;-82
2021/01/12 01:02:22;;;;;;;45.20;31.52;;;;;;;-5.13;86.24;96087.31;1044114;28;20098;-82
2021/01/12 01:02:52;;;;;;;46.33;31.08;;;;;;;-4.96;86.92;96093.41;1048552;28;20039;-82
2021/01/12 01:03:23;;;;;;;45.65;30.60;;;;;;;-5.01;85.66;96083.50;1045866;28;20028;-82
2021/01/12 01:03:53;;;;;;;47.92;31.17;;;;;;;-5.00;85.80;96079.94;1044355;28;20028;-82
2021/01/12 01:04:25;;;;;;;44.67;31.88;;;;;;;-5.00;85.96;96074.78;1040001;28;20021;-82
2021/01/12 01:04:56;;;;;;;43.75;29.95;;;;;;;-4.98;85.65;96085.78;1039946;28;20025;-82
2021/01/12 01:05:26;;;;;;;43.88;30.63;;;;;;;-4.98;84.80;96083.19;1042769;28;20045;-82
2021/01/12 01:05:56;;;;;;;45.58;30.83;;;;;;;-5.04;84.94;96081.22;1043986;28;20381;-82
2021/01/12 01:06:27;;;;;;;46.33;30.55;;;;;;;-4.96;86.13;96085.66;1044379;28;20378;-82
2021/01/12 01:06:57;;;;;;;45.88;30.98;;;;;;;-4.98;85.15;96088.34;1044245;28;20045;-83
2021/01/12 01:07:28;;;;;;;44.60;29.65;;;;;;;-4.98;85.13;96087.56;1047201;28;20493;-83
2021/01/12 01:08:00;;;;;;;46.40;31.30;;;;;;;-4.94;85.98;96087.09;1048458;28;20043;-82
2021/01/12 01:08:30;;;;;;;44.05;30.60;;;;;;;-4.88;86.25;96094.25;1048447;28;20033;-83
2021/01/12 01:09:01;;;;;;;45.08;31.30;;;;;;;-4.88;85.77;96089.06;1043987;28;20096;-82
2021/01/12 01:09:31;;;;;;;45.63;32.35;;;;;;;-4.83;85.62;96092.03;1040406;28;20025;-82
2021/01/12 01:10:02;;;;;;;44.60;32.22;;;;;;;-4.90;85.03;96090.19;1039871;28;20494;-83
2021/01/12 01:10:33;;;;;;;51.75;30.50;;;;;;;-4.92;84.79;96089.53;1040142;28;20089;-82
2021/01/12 01:11:03;;;;;;;45.15;30.13;;;;;;;-4.94;85.13;96094.88;1039797;28;20439;-83
2021/01/12 01:11:39;;;;;;;48.40;32.35;;;;;;;-5.03;85.46;96093.19;1043940;28;20031;-83
2021/01/12 01:12:12;;;;;;;43.80;30.35;;;;;;;-4.98;86.11;96101.28;1044051;28;20486;-83
2021/01/12 01:12:42;;;;;;;43.72;30.42;;;;;;;-4.99;85.76;96097.09;1045391;28;20021;-82
2021/01/12 01:13:13;;;;;;;44.33;30.80;;;;;;;-4.99;85.29;96091.91;1042644;28;20032;-83
2021/01/12 01:13:43;;;;;;;45.40;31.65;;;;;;;-4.94;85.50;96100.03;1039946;28;20075;-83
2021/01/12 01:14:15;;;;;;;45.17;30.55;;;;;;;-4.92;85.25;96107.63;1039788;28;20017;-83
2021/01/12 01:14:45;;;;;;;45.80;30.58;;;;;;;-4.95;85.55;96102.78;1040233;28;20032;-83
2021/01/12 01:15:16;;;;;;;44.75;29.88;;;;;;;-4.96;85.07;96103.75;1042662;28;20025;-83
2021/01/12 01:15:46;;;;;;;43.95;31.05;;;;;;;-4.91;85.98;96104.09;1042855;28;20028;-82
2021/01/12 01:16:17;;;;;;;44.97;30.40;;;;;;;-4.95;85.02;96102.78;1044314;28;20020;-82
2021/01/12 01:16:47;;;;;;;46.28;31.27;;;;;;;-4.91;86.13;96099.72;1044388;28;20020;-82
2021/01/12 01:17:18;;;;;;;43.95;31.45;;;;;;;-4.96;85.63;96096.81;1046223;28;20028;-82
2021/01/12 01:17:49;;;;;;;46.50;31.10;;;;;;;-4.93;85.14;96093.91;1048543;28;20024;-81
2021/01/12 01:18:20;;;;;;;44.85;31.25;;;;;;;-4.93;86.26;96098.25;1048420;28;20071;-83
2021/01/12 01:18:50;;;;;;;46.72;31.92;;;;;;;-4.98;85.44;96100.47;1048489;28;20274;-82
2021/01/12 01:19:21;;;;;;;44.50;31.30;;;;;;;-4.90;86.40;96105.69;1046084;28;20107;-82
2021/01/12 01:19:51;;;;;;;48.85;30.60;;;;;;;-4.92;85.69;96111.03;1044349;28;20055;-82
2021/01/12 01:20:21;;;;;;;44.25;30.83;;;;;;;-5.03;85.70;96113.88;1044285;28;20363;-82
2021/01/12 01:20:52;;;;;;;45.83;30.55;;;;;;;-4.87;86.66;96111.38;1044298;28;20454;-82
2021/01/12 01:21:23;;;;;;;41.47;28.88;;;;;;;-4.85;86.46;96114.63;1044377;28;20032;-82
2021/01/12 01:21:53;;;;;;;44.60;30.02;;;;;;;-4.84;86.34;96118.84;1044365;28;20378;-82
2021/01/12 01:22:24;;;;;;;45.47;31.25;;;;;;;-4.82;86.06;96114.31;1044298;28;20067;-82
2021/01/12 01:22:54;;;;;;;45.92;31.25;;;;;;;-4.85;85.50;96114.63;1044240;28;20036;-82
2021/01/12 01:23:24;;;;;;;43.17;30.33;;;;;;;-4.83;85.48;96117.06;1044417;28;20039;-83
2021/01/12 01:23:55;;;;;;;44.55;31.02;;;;;;;-4.80;85.54;96117.56;1039926;28;20087;-82
2021/01/12 01:24:25;;;;;;;44.70;30.50;;;;;;;-4.73;85.88;96118.59;1040046;28;20033;-82
2021/01/12 01:24:56;;;;;;;44.10;31.20;;;;;;;-4.77;85.44;96112.06;1039895;28;20025;-82
2021/01/12 01:25:26;;;;;;;46.60;30.63;;;;;;;-4.72;85.23;96115.03;1042181;28;20025;-81
2021/01/12 01:25:56;;;;;;;44.47;30.48;;;;;;;-4.75;85.07;96115.31;1044379;28;20035;-84
2021/01/12 01:26:27;;;;;;;46.20;31.15;;;;;;;-4.68;85.76;96115.53;1044351;28;20017;-83
2021/01/12 01:26:58;;;;;;;44.58;30.80;;;;;;;-4.65;85.31;96110.03;1043980;28;20045;-83
2021/01/12 01:27:28;;;;;;;43.83;29.70;;;;;;;-4.61;84.72;96120.91;1044161;28;20490;-83
2021/01/12 01:27:58;;;;;;;39.95;29.70;;;;;;;-4.56;85.66;96116.88;1043983;28;20049;-83
2021/01/12 01:28:29;;;;;;;46.55;31.00;;;;;;;-4.59;85.21;96119.78;1043958;28;20032;-83
2021/01/12 01:28:59;;;;;;;45.70;30.50;;;;;;;-4.57;84.60;96119.63;1044097;28;20024;-83
2021/01/12 01:29:30;;;;;;;42.17;30.60;;;;;;;-4.58;84.69;96118.00;1044127;28;20060;-83
2021/01/12 01:30:00;;;;;;;42.83;29.77;;;;;;;-4.57;84.80;96117.84;1044322;28;20029;-83
2021/01/12 01:30:31;;;;;;;43.42;30.85;;;;;;;-4.56;84.65;96113.47;1044293;28;20032;-82
2021/01/12 01:31:01;;;;;;;42.05;30.23;;;;;;;-4.55;84.83;96117.69;1044350;28;20025;-83
2021/01/12 01:31:35;;;;;;;43.30;30.65;;;;;;;-4.57;84.77;96117.03;1044252;28;20335;-83
2021/01/12 01:32:08;;;;;;;41.13;29.27;;;;;;;-4.56;84.67;96108.31;1044387;28;20021;-83
2021/01/12 01:32:39;;;;;;;45.88;31.77;;;;;;;-4.57;84.73;96114.44;1044448;28;20548;-83
2021/01/12 01:33:09;;;;;;;42.70;29.95;;;;;;;-4.54;84.63;96121.88;1036287;28;20135;-82
2021/01/12 01:33:40;;;;;;;49.80;30.38;;;;;;;-4.46;85.13;96134.88;1034051;28;20371;-82
2021/01/12 01:34:10;;;;;;;43.70;31.17;;;;;;;-4.53;84.91;96129.50;1031813;28;20061;-81
2021/01/12 01:34:41;;;;;;;41.25;29.38;;;;;;;-4.51;84.71;96124.97;1032037;28;20026;-81
2021/01/12 01:35:12;;;;;;;44.28;30.05;;;;;;;-4.54;84.42;96127.88;1039901;28;20033;-81
2021/01/12 01:35:43;;;;;;;43.03;30.05;;;;;;;-4.54;84.27;96120.13;1035841;28;20356;-81
2021/01/12 01:36:14;;;;;;;44.70;30.60;;;;;;;-4.51;84.37;96119.78;1035774;28;20037;-81
2021/01/12 01:36:44;;;;;;;43.17;30.98;;;;;;;-4.57;84.09;96122.22;1035779;28;20064;-81
2021/01/12 01:37:15;;;;;;;46.75;31.60;;;;;;;-4.64;84.54;96121.19;1035942;28;20030;-81
2021/01/12 01:37:46;;;;;;;43.30;30.13;;;;;;;-4.50;86.12;96112.84;1040182;28;20088;-81
2021/01/12 01:38:16;;;;;;;42.38;30.58;;;;;;;-4.52;85.41;96119.94;1040261;28;20384;-81
2021/01/12 01:38:46;;;;;;;39.88;29.48;;;;;;;-4.53;84.67;96115.75;1040288;28;20036;-81
2021/01/12 01:39:17;;;;;;;39.05;27.60;;;;;;;-4.49;84.38;96114.50;1040202;28;20030;-81
2021/01/12 01:39:49;;;;;;;43.38;30.75;;;;;;;-4.48;84.15;96113.53;1040143;28;20005;-81
2021/01/12 01:40:22;;;;;;;47.03;29.65;;;;;;;-4.45;84.49;96113.22;1040981;28;20034;-82
2021/01/12 01:40:59;;;;;;;43.70;30.48;;;;;;;-4.36;85.32;96107.09;1043662;28;20501;-82
2021/01/12 01:41:29;;;;;;;45.05;29.85;;;;;;;-4.38;84.13;96103.88;1043943;28;20028;-81
2021/01/12 01:42:00;;;;;;;42.00;29.15;;;;;;;-4.32;84.66;96110.19;1044111;28;20033;-81
2021/01/12 01:42:31;;;;;;;42.05;30.13;;;;;;;-4.29;84.99;96113.25;1040776;28;20025;-81
2021/01/12 01:43:01;;;;;;;40.75;29.45;;;;;;;-4.32;84.12;96107.59;1043965;28;20488;-81
2021/01/12 01:43:34;;;;;;;42.78;29.75;;;;;;;-4.38;84.09;96111.63;1043968;28;20025;-81
2021/01/12 01:44:05;;;;;;;43.25;28.73;;;;;;;-4.46;84.06;96106.41;1044117;28;20553;-82
2021/01/12 01:44:35;;;;;;;44.45;29.13;;;;;;;-4.47;84.23;96104.78;1043809;28;20061;-82
2021/01/12 01:45:09;;;;;;;41.97;29.77;;;;;;;-4.49;83.62;96099.78;1044471;28;20025;-81
2021/01/12 01:45:40;;;;;;;44.17;29.88;;;;;;;-4.48;83.79;96100.59;1044367;28;20466;-82
2021/01/12 01:46:11;;;;;;;41.72;30.77;;;;;;;-4.47;83.76;96095.25;1043977;28;20041;-81
2021/01/12 01:46:42;;;;;;;41.22;28.65;;;;;;;-4.46;83.66;96090.91;1043923;28;20024;-81
2021/01/12 01:47:13;;;;;;;41.25;29.40;;;;;;;-4.39;83.58;96098.81;1039843;28;20530;-81
2021/01/12 01:47:44;;;;;;;42.05;29.42;;;;;;;-4.33;84.50;96095.63;1039791;28;20021;-81
2021/01/12 01:48:15;;;;;;;41.45;29.00;;;;;;;-4.33;83.56;96093.03;1040130;28;20049;-81
2021/01/12 01:48:46;;;;;;;44.10;29.15;;;;;;;-4.33;83.24;96088.66;1043286;28;20041;-81
2021/01/12 01:49:17;;;;;;;41.55;29.30;;;;;;;-4.32;82.73;96086.91;1044093;28;20028;-81
2021/01/12 01:49:47;;;;;;;40.95;29.05;;;;;;;-4.30;83.55;96078.00;1040441;28;20443;-81
2021/01/12 01:50:19;;;;;;;41.35;29.70;;;;;;;-4.31;83.93;96085.91;1040430;28;20499;-81
2021/01/12 01:50:49;;;;;;;39.72;28.45;;;;;;;-4.30;83.52;96078.00;1028803;28;20034;-81
2021/01/12 01:51:20;;;;;;;40.13;28.83;;;;;;;-4.28;82.94;96081.22;1032797;28;20527;-81
2021/01/12 01:51:51;;;;;;;44.53;30.77;;;;;;;-4.26;82.94;96074.16;1036552;28;20026;-81
2021/01/12 01:52:25;;;;;;;42.42;29.13;;;;;;;-4.28;82.80;96070.06;1032708;28;20061;-81
2021/01/12 01:52:55;;;;;;;42.10;29.67;;;;;;;-4.29;82.50;96074.44;1036570;28;20117;-81
2021/01/12 01:53:26;;;;;;;41.50;29.70;;;;;;;-4.33;82.63;96067.97;1036664;28;20033;-81
2021/01/12 01:53:57;;;;;;;45.30;28.95;;;;;;;-4.36;82.94;96068.28;1035852;28;20037;-81
2021/01/12 01:54:28;;;;;;;44.42;30.35;;;;;;;-4.34;82.88;96073.31;1033130;28;20034;-81
2021/01/12 01:54:58;;;;;;;43.03;29.77;;;;;;;-4.32;83.49;96064.41;1036544;28;20045;-81
2021/01/12 01:55:29;;;;;;;44.22;30.95;;;;;;;-4.35;83.63;96069.09;1036445;28;20026;-81
2021/01/12 01:55:59;;;;;;;45.28;31.45;;;;;;;-4.31;84.08;96066.03;1036625;28;20032;-80
2021/01/12 01:56:30;;;;;;;40.25;30.23;;;;;;;-4.32;83.64;96066.19;1036805;28;20030;-80
2021/01/12 01:57:00;;;;;;;40.45;29.15;;;;;;;-4.35;83.21;96067.31;1032424;28;20026;-80
2021/01/12 01:57:31;;;;;;;43.92;31.08;;;;;;;-4.31;83.95;96073.78;1032537;28;20038;-80
2021/01/12 01:58:01;;;;;;;43.15;29.77;;;;;;;-4.30;83.12;96072.00;1032470;28;20026;-80
2021/01/12 01:58:41;;;;;;;39.60;28.95;;;;;;;-4.36;82.99;96078.63;1032640;28;20065;-80
2021/01/12 01:59:11;;;;;;;41.05;30.15;;;;;;;-4.40;83.55;96074.72;1040989;28;20466;-80
2021/01/12 01:59:41;;;;;;;41.70;30.30;;;;;;;-4.46;83.53;96077.97;1040985;28;20033;-80
2021/01/12 02:00:15;;;;;;;44.65;30.98;;;;;;;-4.44;83.23;96076.00;1040816;28;20067;-80
2021/01/12 02:00:45;;;;;;;40.10;29.60;;;;;;;-4.44;83.17;96076.00;1044085;28;20079;-80
2021/01/12 02:01:16;;;;;;;38.42;28.15;;;;;;;-4.42;83.02;96074.88;1044785;28;20516;-80
2021/01/12 02:01:46;;;;;;;45.45;30.80;;;;;;;-4.43;83.32;96077.63;1044761;28;20025;-80
2021/01/12 02:02:17;;;;;;;43.47;29.95;;;;;;;-4.35;84.78;96075.09;1044662;28;20382;-80
2021/01/12 02:03:09;;;;;;;39.78;28.80;;;;;;;-4.43;83.32;96081.03;1044860;28;20494;-80
2021/01/12 02:03:47;;;;;;;39.95;29.08;;;;;;;-4.35;83.48;96077.66;1044828;28;20524;-79
2021/01/12 02:04:29;;;;;;;44.38;30.83;;;;;;;-4.34;82.92;96075.91;1044799;28;20013;-80
2021/01/12 02:05:00;;;;;;;41.38;27.77;;;;;;;-4.30;83.41;96078.00;1044754;28;20031;-79
2021/01/12 02:05:31;;;;;;;41.20;28.35;;;;;;;-4.31;82.79;96078.97;1044765;28;20036;-80
2021/01/12 02:06:04;;;;;;;40.60;29.50;;;;;;;-4.33;83.07;96073.16;1044533;28;20025;-79
2021/01/12 02:06:34;;;;;;;41.97;29.52;;;;;;;-4.29;82.76;96063.28;1044275;28;20077;-80
2021/01/12 02:07:04;;;;;;;41.15;29.40;;;;;;;-4.33;82.99;96065.38;1044758;28;20390;-80
2021/01/12 02:07:36;;;;;;;42.00;30.40;;;;;;;-4.34;82.73;96063.75;1032503;28;20022;-80
2021/01/12 02:08:09;;;;;;;42.65;30.05;;;;;;;-4.34;82.86;96071.53;1028304;28;20047;-80
2021/01/12 02:08:54;;;;;;;41.92;29.85;;;;;;;-4.36;82.95;96065.69;1028472;28;20440;-80
2021/01/12 02:09:38;;;;;;;40.10;28.85;;;;;;;-4.39;83.23;96068.59;1028454;28;20027;-80
2021/01/12 02:10:11;;;;;;;43.97;29.92;;;;;;;-4.38;82.78;96059.88;1036597;28;20022;-79
2021/01/12 02:10:42;;;;;;;40.35;29.25;;;;;;;-4.37;82.93;96058.09;1041394;28;20029;-80
2021/01/12 02:11:14;;;;;;;45.13;30.77;;;;;;;-4.43;83.38;96067.28;1036297;28;20017;-81
2021/01/12 02:11:48;;;;;;;45.15;29.52;;;;;;;-4.39;82.99;96057.44;1036504;28;20371;-80
2021/01/12 02:12:28;;;;;;;40.95;29.08;;;;;;;-4.43;83.00;96064.69;1037597;28;20311;-81
2021/01/12 02:12:59;;;;;;;40.17;28.45;;;;;;;-4.42;82.84;96059.38;1040639;28;20032;-80
2021/01/12 02:13:31;;;;;;;42.50;29.95;;;;;;;-4.41;83.05;96057.59;1042665;28;20151;-81
2021/01/12 02:14:03;;;;;;;40.97;30.35;;;;;;;-4.42;83.00;96067.13;1040310;28;20364;-81
2021/01/12 02:14:37;;;;;;;44.95;30.45;;;;;;;-4.40;83.00;96064.38;1040257;28;20091;-81
2021/01/12 02:15:08;;;;;;;42.17;30.05;;;;;;;-4.41;83.42;96060.97;1036576;28;20299;-81
2021/01/12 02:15:39;;;;;;;41.50;29.95;;;;;;;-4.44;83.19;96066.47;1037306;28;20073;-81
2021/01/12 02:16:10;;;;;;;43.88;30.85;;;;;;;-4.37;84.36;96066.69;1040652;28;20018;-82
2021/01/12 02:16:41;;;;;;;42.15;29.77;;;;;;;-4.38;83.35;96065.06;1036045;28;20368;-83
2021/01/12 02:17:11;;;;;;;41.47;29.88;;;;;;;-4.28;84.11;96067.47;1032492;28;20022;-81
2021/01/12 02:17:42;;;;;;;44.47;30.20;;;;;;;-4.23;84.25;96060.88;1027771;28;20019;-81
2021/01/12 02:18:12;;;;;;;40.20;28.90;;;;;;;-4.21;83.83;96074.47;1024529;28;20023;-80
2021/01/12 02:18:43;;;;;;;39.97;29.42;;;;;;;-4.27;83.14;96071.69;1028503;28;20019;-80
2021/01/12 02:19:20;;;;;;;42.17;29.77;;;;;;;-4.24;82.69;96071.41;1028470;28;20495;-81
2021/01/12 02:19:51;;;;;;;41.22;29.38;;;;;;;-4.25;82.65;96073.19;1033393;28;20022;-81
2021/01/12 02:20:25;;;;;;;41.42;29.65;;;;;;;-4.23;82.55;96068.66;1033668;28;20021;-82
2021/01/12 02:20:56;;;;;;;44.78;30.83;;;;;;;-4.24;82.93;96064.44;1032366;28;20034;-81
2021/01/12 02:21:26;;;;;;;40.08;28.23;;;;;;;-4.22;83.61;96064.28;1028366;28;20030;-81
2021/01/12 02:22:03;;;;;;;45.20;29.90;;;;;;;-4.20;83.01;96063.16;1029112;28;20027;-88
2021/01/12 02:22:33;;;;;;;38.65;27.73;;;;;;;-4.21;83.60;96064.13;1033323;28;20022;-81
2021/01/12 02:23:13;;;;;;;41.40;29.15;;;;;;;-4.23;82.62;96067.84;1033243;28;20026;-80
2021/01/12 02:23:53;;;;;;;39.72;29.25;;;;;;;-4.32;82.63;96064.41;1036596;28;20104;-80
2021/01/12 02:24:23;;;;;;;45.97;30.48;;;;;;;-4.31;83.35;96068.63;1036608;28;20030;-80
2021/01/12 02:24:54;;;;;;;44.55;30.40;;;;;;;-4.26;83.69;96065.53;1033767;28;20411;-80